Terminal Aerodrome Forecast
Issued by NWS Wilmington, NC

Home | Current Version | Previous Version | Text Only | Print | Product List | Glossary On
Versions: 1 2 3 4 5 6 7 8 9 10 11 12 13 14 15 16
538
FTUS42 KILM 302320
TAFLBT
TAF
KLBT 302320Z 0100/0124 17010KT P6SM FEW025 FEW250
     FM010500 17010KT P6SM SCT015
     FM010700 18011KT P6SM BKN015
     FM011400 20019G30KT P6SM SCT030 BKN110
     FM012300 20016G26KT P6SM -SHRA VCTS OVC035CB=

USA.gov is the U.S. government's official web portal to all federal, state and local government web resources and services.